createdAt,value
2018-12-18T00:00:47.774Z,99953.00
2018-12-18T00:03:15.993Z,99951.00
2018-12-18T00:05:44.231Z,99953.00
2018-12-18T00:08:12.402Z,99953.00
2018-12-18T00:10:45.969Z,99944.00
2018-12-18T00:13:14.146Z,99940.00
2018-12-18T00:15:42.315Z,99946.00
2018-12-18T00:18:10.487Z,99948.00
2018-12-18T00:20:38.664Z,99958.00
2018-12-18T00:23:06.836Z,99944.00
2018-12-18T00:25:34.990Z,99960.00
2018-12-18T00:28:04.701Z,99951.00
2018-12-18T00:30:32.855Z,99955.00
2018-12-18T00:33:01.000Z,99955.00
2018-12-18T00:35:31.936Z,99944.00
2018-12-18T00:38:00.110Z,99939.00
2018-12-18T00:40:28.265Z,99944.00
2018-12-18T00:42:56.429Z,99935.00
2018-12-18T00:45:24.582Z,99942.00
2018-12-18T00:47:52.810Z,99944.00
2018-12-18T00:50:21.830Z,99941.00
2018-12-18T00:52:50.010Z,99943.00
2018-12-18T00:55:18.221Z,99938.00
2018-12-18T00:57:46.401Z,99932.00
2018-12-18T01:00:14.559Z,99937.00
2018-12-18T01:02:42.764Z,99866.00
2018-12-18T01:05:11.050Z,99927.00
2018-12-18T01:07:39.326Z,99913.00
2018-12-18T01:10:08.042Z,99917.00
2018-12-18T01:12:36.245Z,99909.00
2018-12-18T01:15:06.567Z,99909.00
2018-12-18T01:17:35.433Z,99903.00
2018-12-18T01:20:04.067Z,99895.00
2018-12-18T01:22:32.230Z,99891.00
2018-12-18T01:25:00.450Z,99891.00
2018-12-18T01:27:28.621Z,99890.00
2018-12-18T01:29:56.799Z,99888.00
2018-12-18T01:32:24.992Z,99865.00
2018-12-18T01:34:53.148Z,99859.00
2018-12-18T01:37:21.417Z,99851.00
2018-12-18T01:39:49.618Z,99854.00
2018-12-18T01:42:17.787Z,99865.00
2018-12-18T01:44:45.953Z,99868.00
2018-12-18T01:47:14.191Z,99869.00
2018-12-18T01:49:42.358Z,99882.00
2018-12-18T01:52:10.499Z,99875.00
2018-12-18T01:54:38.669Z,99864.00
2018-12-18T01:57:06.831Z,99848.00
2018-12-18T01:59:35.023Z,99837.00
2018-12-18T02:02:03.193Z,99838.00
2018-12-18T02:04:31.343Z,99830.00
2018-12-18T02:06:59.485Z,99833.00
2018-12-18T02:09:27.650Z,99806.00
2018-12-18T02:11:55.835Z,99807.00
2018-12-18T02:14:24.101Z,99794.00
2018-12-18T02:16:52.342Z,99787.00
2018-12-18T02:19:20.531Z,99794.00
2018-12-18T02:21:48.705Z,99792.00
2018-12-18T02:24:16.880Z,99794.00
2018-12-18T02:26:45.033Z,99790.00
2018-12-18T02:29:13.203Z,99793.00
2018-12-18T02:31:41.407Z,99802.00
2018-12-18T02:34:13.815Z,99800.00
2018-12-18T02:36:39.859Z,99781.00
2018-12-18T02:39:08.028Z,99787.00
2018-12-18T02:41:36.198Z,99772.00
2018-12-18T02:44:04.482Z,99772.00
2018-12-18T02:46:33.380Z,99770.00
2018-12-18T02:49:01.541Z,99759.00
2018-12-18T02:51:29.709Z,99743.00
2018-12-18T02:53:57.995Z,99738.00
2018-12-18T02:56:26.162Z,99731.00
2018-12-18T02:58:54.329Z,99724.00
2018-12-18T03:01:22.520Z,99715.00
2018-12-18T03:03:50.666Z,99706.00
2018-12-18T03:06:18.823Z,99703.00
2018-12-18T03:08:47.039Z,99688.00
2018-12-18T03:11:17.206Z,99690.00
2018-12-18T03:13:45.373Z,99681.00
2018-12-18T03:16:13.555Z,99694.00
2018-12-18T03:18:41.886Z,99668.00
2018-12-18T03:21:10.055Z,99684.00
2018-12-18T03:23:38.308Z,99694.00
2018-12-18T03:26:06.465Z,99684.00
2018-12-18T03:28:34.633Z,99672.00
2018-12-18T03:31:02.855Z,99691.00
2018-12-18T03:33:31.139Z,99695.00
2018-12-18T03:35:59.313Z,99678.00
2018-12-18T03:38:27.500Z,99677.00
2018-12-18T03:40:55.659Z,99688.00
2018-12-18T03:43:23.819Z,99674.00
2018-12-18T03:45:53.088Z,99667.00
2018-12-18T03:48:21.719Z,99672.00
2018-12-18T03:50:49.867Z,99678.00
2018-12-18T03:53:18.062Z,99658.00
2018-12-18T03:55:46.219Z,99651.00
2018-12-18T03:58:14.388Z,99655.00
2018-12-18T04:00:42.897Z,99651.00
2018-12-18T04:03:11.970Z,99649.00
2018-12-18T04:05:40.272Z,99646.00
2018-12-18T04:08:08.456Z,99644.00
2018-12-18T04:10:36.719Z,99639.00
2018-12-18T04:13:04.894Z,99635.00
2018-12-18T04:15:33.085Z,99630.00
2018-12-18T04:18:01.369Z,99627.00
2018-12-18T04:20:29.523Z,99625.00
2018-12-18T04:22:57.705Z,99631.00
2018-12-18T04:25:25.868Z,99620.00
2018-12-18T04:27:54.089Z,99615.00
2018-12-18T04:30:22.361Z,99615.00
2018-12-18T04:32:50.522Z,99597.00
2018-12-18T04:35:18.669Z,99607.00
2018-12-18T04:37:46.870Z,99602.00
2018-12-18T04:40:15.039Z,99604.00
2018-12-18T04:42:43.196Z,99586.00
2018-12-18T04:45:11.365Z,99588.00
2018-12-18T04:47:39.528Z,99568.00
2018-12-18T04:50:07.702Z,99576.00
2018-12-18T04:52:35.918Z,99576.00
2018-12-18T04:55:05.598Z,99572.00
2018-12-18T04:57:33.742Z,99573.00
2018-12-18T05:00:01.930Z,99574.00
2018-12-18T05:02:30.100Z,99569.00
2018-12-18T05:04:58.248Z,99572.00
2018-12-18T05:07:26.421Z,99571.00
2018-12-18T05:09:54.602Z,99580.00
2018-12-18T05:12:22.753Z,99563.00
2018-12-18T05:14:51.195Z,99565.00
2018-12-18T05:17:19.391Z,99563.00
2018-12-18T05:19:47.557Z,99555.00
2018-12-18T05:22:15.731Z,99554.00
2018-12-18T05:24:43.883Z,99543.00
2018-12-18T05:27:12.068Z,99542.00
2018-12-18T05:29:40.560Z,99532.00
2018-12-18T05:32:08.934Z,99541.00
2018-12-18T05:34:37.747Z,99526.00
2018-12-18T05:37:05.947Z,99519.00
2018-12-18T05:39:35.025Z,99515.00
2018-12-18T05:42:03.301Z,99511.00
2018-12-18T05:44:31.471Z,99495.00
2018-12-18T05:46:59.659Z,99501.00
2018-12-18T05:49:27.847Z,99484.00
2018-12-18T05:51:56.013Z,99491.00
2018-12-18T05:54:25.076Z,99495.00
2018-12-18T05:56:54.458Z,99484.00
2018-12-18T05:59:22.747Z,99481.00
2018-12-18T06:01:50.897Z,99483.00
2018-12-18T06:04:19.057Z,99476.00
2018-12-18T06:06:47.951Z,99471.00
2018-12-18T06:09:16.094Z,99477.00
2018-12-18T06:11:44.281Z,99468.00
2018-12-18T06:14:12.448Z,99456.00
2018-12-18T06:16:40.785Z,99462.00
2018-12-18T06:19:08.959Z,99454.00
2018-12-18T06:21:37.132Z,99459.00
2018-12-18T06:24:05.304Z,99457.00
2018-12-18T06:26:33.488Z,99454.00
2018-12-18T06:29:01.969Z,99448.00
2018-12-18T06:31:30.138Z,99446.00
2018-12-18T06:33:58.302Z,99447.00
2018-12-18T06:36:26.457Z,99446.00
2018-12-18T06:38:54.715Z,99444.00
2018-12-18T06:41:22.861Z,99442.00
2018-12-18T06:43:51.031Z,99442.00
2018-12-18T06:46:19.199Z,99444.00
2018-12-18T06:48:47.348Z,99432.00
2018-12-18T06:51:15.507Z,99426.00
2018-12-18T06:53:43.689Z,99432.00
2018-12-18T06:56:11.855Z,99428.00
2018-12-18T06:58:40.013Z,99423.00
2018-12-18T07:01:08.236Z,99425.00
2018-12-18T07:03:37.168Z,99419.00
2018-12-18T07:06:05.381Z,99415.00
2018-12-18T07:08:33.571Z,99428.00
2018-12-18T07:11:01.712Z,99413.00
2018-12-18T07:13:29.869Z,99409.00
2018-12-18T07:15:58.054Z,99404.00
2018-12-18T07:18:26.211Z,99405.00
2018-12-18T07:20:54.368Z,99411.00
2018-12-18T07:23:22.584Z,99408.00
2018-12-18T07:25:51.581Z,99397.00
2018-12-18T07:28:19.748Z,99418.00
2018-12-18T07:30:47.954Z,99413.00
2018-12-18T07:33:17.050Z,99428.00
2018-12-18T07:35:45.196Z,99409.00
2018-12-18T07:38:13.376Z,99417.00
2018-12-18T07:40:41.528Z,99411.00
2018-12-18T07:43:09.687Z,99394.00
2018-12-18T07:45:37.874Z,99398.00
2018-12-18T07:48:06.039Z,99393.00
2018-12-18T07:50:34.206Z,99397.00
2018-12-18T07:53:02.394Z,99406.00
2018-12-18T07:55:30.570Z,99380.00
2018-12-18T07:57:58.737Z,99384.00
2018-12-18T08:00:26.907Z,99392.00
2018-12-18T08:02:55.529Z,99384.00
2018-12-18T08:05:29.907Z,99397.00
2018-12-18T08:07:54.747Z,99391.00
2018-12-18T08:10:22.919Z,99383.00
2018-12-18T08:12:51.071Z,99398.00
2018-12-18T08:15:19.241Z,99384.00
2018-12-18T08:17:47.402Z,99369.00
2018-12-18T08:20:15.592Z,99371.00
2018-12-18T08:22:43.765Z,99346.00
2018-12-18T08:25:11.921Z,99364.00
2018-12-18T08:27:40.065Z,99362.00
2018-12-18T08:30:08.966Z,99367.00
2018-12-18T08:32:37.131Z,99363.00
2018-12-18T08:35:06.023Z,99351.00
2018-12-18T08:37:34.209Z,99356.00
2018-12-18T08:40:02.369Z,99360.00
2018-12-18T08:42:30.854Z,99359.00
2018-12-18T08:44:59.036Z,99349.00
2018-12-18T08:47:27.197Z,99351.00
2018-12-18T08:49:55.373Z,99347.00
2018-12-18T08:52:23.850Z,99360.00
2018-12-18T08:54:52.012Z,99354.00
2018-12-18T08:57:20.186Z,99351.00
2018-12-18T08:59:49.330Z,99347.00
2018-12-18T09:02:17.498Z,99354.00
2018-12-18T09:04:45.723Z,99346.00
2018-12-18T09:07:13.924Z,99333.00
2018-12-18T09:09:42.070Z,99340.00
2018-12-18T09:12:12.256Z,99325.00
2018-12-18T09:14:42.452Z,99308.00
2018-12-18T09:17:10.629Z,99317.00
2018-12-18T09:19:38.813Z,99295.00
2018-12-18T09:22:07.548Z,99298.00
2018-12-18T09:24:35.719Z,99298.00
2018-12-18T09:27:03.855Z,99283.00
2018-12-18T09:29:33.558Z,99280.00
2018-12-18T09:32:01.717Z,99267.00
2018-12-18T09:34:29.863Z,99262.00
2018-12-18T09:36:58.041Z,99263.00
2018-12-18T09:42:28.221Z,99260.00
2018-12-18T09:44:56.369Z,99260.00
2018-12-18T09:47:24.537Z,99267.00
2018-12-18T09:49:52.696Z,99272.00
2018-12-18T09:52:20.977Z,99278.00
2018-12-18T09:54:49.651Z,99268.00
2018-12-18T09:57:23.323Z,99265.00
2018-12-18T09:59:51.485Z,99275.00
2018-12-18T10:02:19.630Z,99268.00
2018-12-18T10:04:47.818Z,99265.00
2018-12-18T10:07:15.980Z,99264.00
2018-12-18T10:09:44.124Z,99264.00
2018-12-18T10:12:12.290Z,99254.00
2018-12-18T10:14:40.475Z,99245.00
2018-12-18T10:17:08.616Z,99237.00
2018-12-18T10:19:36.785Z,99245.00
2018-12-18T10:22:04.961Z,99231.00
2018-12-18T10:24:33.303Z,99235.00
2018-12-18T10:27:01.469Z,99232.00
2018-12-18T10:29:29.966Z,99222.00
2018-12-18T10:31:58.539Z,99229.00
2018-12-18T10:34:26.736Z,99209.00
2018-12-18T10:36:54.909Z,99191.00
2018-12-18T10:39:23.078Z,99191.00
2018-12-18T10:41:51.256Z,99183.00
2018-12-18T10:44:19.416Z,99176.00
2018-12-18T10:46:47.583Z,99182.00
2018-12-18T10:49:15.766Z,99161.00
2018-12-18T10:51:43.938Z,99159.00
2018-12-18T10:54:12.107Z,99153.00
2018-12-18T10:56:40.305Z,99135.00
2018-12-18T10:59:08.472Z,99130.00
2018-12-18T11:01:42.224Z,99109.00
2018-12-18T11:04:10.387Z,99114.00
2018-12-18T11:06:38.548Z,99107.00
2018-12-18T11:09:09.464Z,99108.00
2018-12-18T11:11:38.448Z,99118.00
2018-12-18T11:14:06.616Z,99102.00
2018-12-18T11:16:37.500Z,99101.00
2018-12-18T11:19:05.088Z,99096.00
2018-12-18T11:21:33.233Z,99095.00
2018-12-18T11:24:01.426Z,99095.00
2018-12-18T11:26:29.568Z,99078.00
2018-12-18T11:28:57.734Z,99079.00
2018-12-18T11:31:25.920Z,99077.00
2018-12-18T11:33:54.062Z,99067.00
2018-12-18T11:36:22.222Z,99086.00
2018-12-18T11:38:50.513Z,99088.00
2018-12-18T11:41:18.684Z,99087.00
2018-12-18T11:43:46.830Z,99064.00
2018-12-18T11:46:15.030Z,99067.00
2018-12-18T11:48:43.180Z,99053.00
2018-12-18T11:51:11.326Z,99062.00
2018-12-18T11:53:39.560Z,99063.00
2018-12-18T11:56:07.734Z,99052.00
2018-12-18T11:58:37.681Z,99058.00
2018-12-18T12:01:05.854Z,99041.00
2018-12-18T12:03:34.012Z,99028.00
2018-12-18T12:06:02.188Z,99039.00
2018-12-18T12:08:31.276Z,99043.00
2018-12-18T12:10:59.426Z,99039.00
2018-12-18T12:13:27.614Z,99029.00
2018-12-18T12:15:55.784Z,99029.00
2018-12-18T12:18:23.934Z,99005.00
2018-12-18T12:20:52.114Z,99005.00
2018-12-18T12:23:20.281Z,98994.00
2018-12-18T12:25:48.429Z,99002.00
2018-12-18T12:28:16.617Z,99006.00
2018-12-18T12:30:44.809Z,98988.00
2018-12-18T12:33:12.963Z,98993.00
2018-12-18T12:35:41.167Z,98995.00
2018-12-18T12:38:09.337Z,98988.00
2018-12-18T12:40:37.488Z,98974.00
2018-12-18T12:43:05.766Z,98927.00
2018-12-18T12:45:33.934Z,98966.00
2018-12-18T12:48:04.117Z,98958.00
2018-12-18T12:50:32.414Z,98947.00
2018-12-18T12:53:00.604Z,98952.00
2018-12-18T12:55:28.776Z,98934.00
2018-12-18T12:57:56.980Z,98929.00
2018-12-18T13:00:25.158Z,98938.00
2018-12-18T13:02:53.326Z,98921.00
2018-12-18T13:05:21.504Z,98917.00
2018-12-18T13:07:49.673Z,98914.00
2018-12-18T13:10:17.838Z,98915.00
2018-12-18T13:12:45.984Z,98925.00
2018-12-18T13:15:14.171Z,98912.00
2018-12-18T13:17:42.331Z,98907.00
2018-12-18T13:20:10.510Z,98912.00
2018-12-18T13:22:39.567Z,98906.00
2018-12-18T13:25:07.751Z,98898.00
2018-12-18T13:27:36.131Z,98902.00
2018-12-18T13:30:06.035Z,98899.00
2018-12-18T13:32:34.182Z,98890.00
2018-12-18T13:35:02.352Z,98882.00
2018-12-18T13:37:30.875Z,98888.00
2018-12-18T13:39:59.021Z,98888.00
2018-12-18T13:42:27.199Z,98874.00
2018-12-18T13:44:55.392Z,98864.00
2018-12-18T13:47:27.126Z,98882.00
2018-12-18T13:49:53.730Z,98873.00
2018-12-18T13:52:21.919Z,98871.00
2018-12-18T13:54:50.092Z,98873.00
2018-12-18T13:57:18.255Z,98859.00
2018-12-18T13:59:46.425Z,98861.00
2018-12-18T14:02:14.592Z,98860.00
2018-12-18T14:04:42.758Z,98868.00
2018-12-18T14:07:11.034Z,98853.00
2018-12-18T14:09:39.303Z,98859.00
2018-12-18T14:12:07.585Z,98850.00
2018-12-18T14:14:35.746Z,98831.00
2018-12-18T14:17:04.112Z,98838.00
2018-12-18T14:19:32.257Z,98826.00
2018-12-18T14:22:00.417Z,98834.00
2018-12-18T14:24:28.590Z,98762.00
2018-12-18T14:26:56.760Z,98815.00
2018-12-18T14:29:24.955Z,98817.00
2018-12-18T14:31:53.146Z,98817.00
2018-12-18T14:34:21.332Z,98812.00
2018-12-18T14:36:56.018Z,98805.00
2018-12-18T14:39:19.734Z,98797.00
2018-12-18T14:41:47.926Z,98792.00
2018-12-18T14:44:16.089Z,98796.00
2018-12-18T14:46:44.249Z,98797.00
2018-12-18T14:49:12.409Z,98795.00
2018-12-18T14:51:40.580Z,98785.00
2018-12-18T14:54:08.845Z,98778.00
2018-12-18T14:56:37.001Z,98787.00
2018-12-18T14:59:05.186Z,98764.00
2018-12-18T15:01:33.445Z,98780.00
2018-12-18T15:04:01.598Z,98769.00
2018-12-18T15:06:29.785Z,98766.00
2018-12-18T15:08:57.932Z,98769.00
2018-12-18T15:11:26.124Z,98762.00
2018-12-18T15:13:54.274Z,98766.00
2018-12-18T15:16:22.443Z,98765.00
2018-12-18T15:18:51.561Z,98765.00
2018-12-18T15:21:20.210Z,98758.00
2018-12-18T15:23:48.376Z,98755.00
2018-12-18T15:28:51.001Z,98742.00
2018-12-18T15:31:19.214Z,98746.00
2018-12-18T15:33:47.374Z,98741.00
2018-12-18T15:36:15.564Z,98724.00
2018-12-18T15:38:43.725Z,98734.00
2018-12-18T15:41:11.888Z,98724.00
2018-12-18T15:43:40.078Z,98724.00
2018-12-18T15:46:10.105Z,98724.00
2018-12-18T15:48:39.100Z,98714.00
2018-12-18T15:51:07.744Z,98721.00
2018-12-18T15:53:35.939Z,98708.00
2018-12-18T15:56:05.058Z,98706.00
2018-12-18T15:58:35.625Z,98696.00
2018-12-18T16:01:04.709Z,98704.00
2018-12-18T16:03:32.902Z,98703.00
2018-12-18T16:06:01.065Z,98701.00
2018-12-18T16:08:29.294Z,98696.00
2018-12-18T16:10:57.466Z,98675.00
2018-12-18T16:13:25.719Z,98688.00
2018-12-18T16:15:54.780Z,98681.00
2018-12-18T16:18:22.983Z,98672.00
2018-12-18T16:20:51.199Z,98672.00
2018-12-18T16:23:19.646Z,98669.00
2018-12-18T16:25:47.904Z,98665.00
2018-12-18T16:28:16.092Z,98663.00
2018-12-18T16:30:45.564Z,98667.00
2018-12-18T16:33:14.512Z,98673.00
2018-12-18T16:35:46.311Z,98665.00
2018-12-18T16:38:13.534Z,98668.00
2018-12-18T16:40:41.709Z,98670.00
2018-12-18T16:43:09.857Z,98662.00
2018-12-18T16:45:38.040Z,98662.00
2018-12-18T16:48:06.438Z,98666.00
2018-12-18T16:50:34.952Z,98664.00
2018-12-18T16:53:03.422Z,98663.00
2018-12-18T16:55:31.595Z,98667.00
2018-12-18T16:57:59.787Z,98655.00
2018-12-18T17:00:27.946Z,98654.00
2018-12-18T17:02:56.140Z,98659.00
2018-12-18T17:05:24.323Z,98650.00
2018-12-18T17:07:52.499Z,98650.00
2018-12-18T17:10:20.651Z,98650.00
2018-12-18T17:12:54.284Z,98648.00
2018-12-18T17:15:22.559Z,98648.00
2018-12-18T17:17:50.703Z,98657.00
2018-12-18T17:20:18.918Z,98651.00
2018-12-18T17:22:47.100Z,98643.00
2018-12-18T17:25:15.299Z,98632.00
2018-12-18T17:27:43.512Z,98634.00
2018-12-18T17:30:11.682Z,98638.00
2018-12-18T17:32:39.842Z,98645.00
2018-12-18T17:35:08.121Z,98647.00
2018-12-18T17:37:36.545Z,98631.00
2018-12-18T17:40:06.636Z,98654.00
2018-12-18T17:42:34.798Z,98637.00
2018-12-18T17:45:03.046Z,98634.00
2018-12-18T17:47:31.198Z,98633.00
2018-12-18T17:49:59.338Z,98636.00
2018-12-18T17:52:27.530Z,98637.00
2018-12-18T17:54:55.722Z,98650.00
2018-12-18T17:57:24.199Z,98641.00
2018-12-18T17:59:52.393Z,98634.00
2018-12-18T18:02:20.568Z,98641.00
2018-12-18T18:04:48.739Z,98641.00
2018-12-18T18:07:16.941Z,98643.00
2018-12-18T18:09:45.116Z,98639.00
2018-12-18T18:12:13.296Z,98634.00
2018-12-18T18:14:41.481Z,98632.00
2018-12-18T18:17:09.652Z,98634.00
2018-12-18T18:19:37.921Z,98628.00
2018-12-18T18:22:06.109Z,98640.00
2018-12-18T18:24:34.298Z,98640.00
2018-12-18T18:27:02.476Z,98631.00
2018-12-18T18:29:30.648Z,98633.00
2018-12-18T18:31:58.801Z,98645.00
2018-12-18T18:34:26.950Z,98624.00
2018-12-18T18:36:55.118Z,98624.00
2018-12-18T18:39:23.287Z,98634.00
2018-12-18T18:41:51.436Z,98626.00
2018-12-18T18:44:19.626Z,98632.00
2018-12-18T18:46:47.818Z,98632.00
2018-12-18T18:49:15.983Z,98646.00
2018-12-18T18:51:44.154Z,98646.00
2018-12-18T18:54:12.319Z,98635.00
2018-12-18T18:56:40.522Z,98645.00
2018-12-18T18:59:08.709Z,98656.00
2018-12-18T19:01:36.864Z,98652.00
2018-12-18T19:04:05.134Z,98664.00
2018-12-18T19:06:34.161Z,98652.00
2018-12-18T19:09:02.315Z,98652.00
2018-12-18T19:11:30.463Z,98648.00
2018-12-18T19:13:58.648Z,98645.00
2018-12-18T19:16:26.832Z,98635.00
2018-12-18T19:18:54.988Z,98637.00
2018-12-18T19:21:23.148Z,98635.00
2018-12-18T19:23:51.383Z,98640.00
2018-12-18T19:26:19.554Z,98627.00
2018-12-18T19:28:50.378Z,98635.00
2018-12-18T19:31:18.022Z,98639.00
2018-12-18T19:33:46.229Z,98647.00
2018-12-18T19:36:14.420Z,98656.00
2018-12-18T19:38:42.595Z,98656.00
2018-12-18T19:41:10.794Z,98656.00
2018-12-18T19:43:39.003Z,98654.00
2018-12-18T19:46:07.150Z,98654.00
2018-12-18T19:48:35.959Z,98650.00
2018-12-18T19:51:04.233Z,98649.00
2018-12-18T19:53:32.434Z,98653.00
2018-12-18T19:56:00.587Z,98648.00
2018-12-18T19:58:28.811Z,98652.00
2018-12-18T20:00:57.305Z,98654.00
2018-12-18T20:03:25.468Z,98654.00
2018-12-18T20:05:54.645Z,98647.00
2018-12-18T20:08:22.936Z,98651.00
2018-12-18T20:10:51.112Z,98654.00
2018-12-18T20:13:19.295Z,98645.00
2018-12-18T20:15:47.488Z,98638.00
2018-12-18T20:18:16.529Z,98647.00
2018-12-18T20:20:44.723Z,98646.00
2018-12-18T20:23:12.888Z,98653.00
2018-12-18T20:25:41.037Z,98654.00
2018-12-18T20:28:09.306Z,98650.00
2018-12-18T20:30:37.470Z,98657.00
2018-12-18T20:33:05.633Z,98661.00
2018-12-18T20:35:33.805Z,98659.00
2018-12-18T20:38:01.974Z,98663.00
2018-12-18T20:40:30.141Z,98665.00
2018-12-18T20:42:58.324Z,98668.00
2018-12-18T20:45:26.495Z,98671.00
2018-12-18T20:47:54.664Z,98674.00
2018-12-18T20:50:22.855Z,98623.00
2018-12-18T20:52:51.027Z,98645.00
2018-12-18T20:55:19.877Z,98646.00
2018-12-18T20:57:48.056Z,98648.00
2018-12-18T21:00:16.992Z,98648.00
2018-12-18T21:02:45.176Z,98656.00
2018-12-18T21:05:13.457Z,98662.00
2018-12-18T21:07:41.605Z,98671.00
2018-12-18T21:10:09.901Z,98663.00
2018-12-18T21:12:38.952Z,98677.00
2018-12-18T21:15:07.912Z,98685.00
2018-12-18T21:17:36.125Z,98690.00
2018-12-18T21:20:06.722Z,98682.00
2018-12-18T21:22:34.902Z,98676.00
2018-12-18T21:25:05.786Z,98686.00
2018-12-18T21:27:33.938Z,98697.00
2018-12-18T21:30:02.138Z,98690.00
2018-12-18T21:32:30.333Z,98684.00
2018-12-18T21:34:58.485Z,98688.00
2018-12-18T21:37:26.963Z,98681.00
2018-12-18T21:39:55.143Z,98689.00
2018-12-18T21:42:23.286Z,98690.00
2018-12-18T21:44:51.819Z,98690.00
2018-12-18T21:47:20.011Z,98687.00
2018-12-18T21:49:48.181Z,98708.00
2018-12-18T21:52:16.430Z,98702.00
2018-12-18T21:54:44.615Z,98705.00
2018-12-18T21:57:12.804Z,98712.00
2018-12-18T21:59:41.244Z,98718.00
2018-12-18T22:02:09.425Z,98714.00
2018-12-18T22:04:37.598Z,98721.00
2018-12-18T22:07:05.880Z,98724.00
2018-12-18T22:09:34.087Z,98725.00
2018-12-18T22:12:02.270Z,98724.00
2018-12-18T22:14:30.478Z,98720.00
2018-12-18T22:16:58.630Z,98720.00
2018-12-18T22:19:26.793Z,98715.00
2018-12-18T22:21:54.955Z,98719.00
2018-12-18T22:24:23.143Z,98715.00
2018-12-18T22:26:51.317Z,98723.00
2018-12-18T22:29:19.521Z,98726.00
2018-12-18T22:31:47.693Z,98719.00
2018-12-18T22:34:16.685Z,98722.00
2018-12-18T22:36:44.931Z,98651.00
2018-12-18T22:39:13.119Z,98719.00
2018-12-18T22:41:41.283Z,98724.00
2018-12-18T22:44:10.356Z,98717.00
2018-12-18T22:46:38.529Z,98709.00
2018-12-18T22:49:06.696Z,98709.00
2018-12-18T22:51:34.851Z,98714.00
2018-12-18T22:54:03.050Z,98716.00
2018-12-18T22:56:31.303Z,98724.00
2018-12-18T22:58:59.465Z,98727.00
2018-12-18T23:01:33.194Z,98730.00
2018-12-18T23:04:01.471Z,98732.00
2018-12-18T23:06:29.632Z,98721.00
2018-12-18T23:08:57.886Z,98731.00
2018-12-18T23:11:26.027Z,98725.00
2018-12-18T23:13:55.024Z,98726.00
2018-12-18T23:16:23.182Z,98738.00
2018-12-18T23:18:53.405Z,98730.00
2018-12-18T23:21:22.569Z,98730.00
2018-12-18T23:23:50.775Z,98725.00
2018-12-18T23:26:18.920Z,98723.00
2018-12-18T23:28:47.063Z,98730.00
2018-12-18T23:31:15.243Z,98721.00
2018-12-18T23:33:43.695Z,98720.00
2018-12-18T23:36:11.875Z,98726.00
2018-12-18T23:38:40.049Z,98712.00
2018-12-18T23:41:08.233Z,98722.00
2018-12-18T23:43:36.380Z,98713.00
2018-12-18T23:46:05.383Z,98723.00
2018-12-18T23:48:39.565Z,98724.00
2018-12-18T23:51:04.051Z,98723.00
2018-12-18T23:53:32.225Z,98732.00
2018-12-18T23:56:00.491Z,98729.00
2018-12-18T23:58:28.633Z,98732.00
